createdAt,value
2023-03-11T00:01:34.383Z,6.03
2023-03-11T00:05:39.058Z,4.37
2023-03-11T00:09:40.449Z,4.33
2023-03-11T00:13:41.796Z,3.87
2023-03-11T00:17:43.309Z,4.73
2023-03-11T00:21:44.636Z,5.20
2023-03-11T00:25:46.891Z,4.30
2023-03-11T00:29:48.223Z,4.50
2023-03-11T00:33:49.608Z,4.60
2023-03-11T00:37:55.101Z,4.17
2023-03-11T00:41:56.641Z,4.57
2023-03-11T00:45:57.986Z,4.33
2023-03-11T00:49:59.781Z,4.23
2023-03-11T00:54:01.343Z,4.37
2023-03-11T00:58:05.455Z,4.63
2023-03-11T01:02:06.765Z,4.53
2023-03-11T01:06:08.779Z,5.37
2023-03-11T01:10:11.156Z,4.53
2023-03-11T01:14:12.622Z,5.23
2023-03-11T01:18:14.201Z,4.67
2023-03-11T01:22:16.041Z,3.93
2023-03-11T01:26:17.428Z,3.93
2023-03-11T01:30:21.947Z,3.90
2023-03-11T01:34:23.265Z,3.63
2023-03-11T01:38:24.578Z,4.87
2023-03-11T01:42:25.878Z,3.80
2023-03-11T01:46:31.223Z,3.33
2023-03-11T01:50:36.905Z,3.60
2023-03-11T01:54:40.612Z,4.30
2023-03-11T01:58:46.251Z,3.93
2023-03-11T02:02:52.794Z,4.20
2023-03-11T02:06:56.153Z,4.43
2023-03-11T02:10:57.707Z,5.10
2023-03-11T02:15:00.456Z,5.10
2023-03-11T02:19:26.767Z,5.60
2023-03-11T02:23:36.536Z,5.57
2023-03-11T02:27:42.148Z,4.10
2023-03-11T02:31:44.210Z,4.23
2023-03-11T02:35:45.721Z,4.60
2023-03-11T02:39:51.080Z,4.70
2023-03-11T02:43:52.714Z,4.70
2023-03-11T02:47:56.425Z,3.70
2023-03-11T02:51:57.829Z,3.90
2023-03-11T02:55:59.264Z,3.67
2023-03-11T03:00:06.384Z,3.80
2023-03-11T03:04:07.809Z,3.50
2023-03-11T03:08:09.265Z,4.10
2023-03-11T03:12:10.659Z,4.07
2023-03-11T03:16:12.519Z,3.67
2023-03-11T03:20:14.751Z,3.57
2023-03-11T03:24:16.278Z,3.87
2023-03-11T03:28:17.661Z,3.93
2023-03-11T03:32:19.011Z,4.67
2023-03-11T03:36:20.373Z,4.33
2023-03-11T03:40:21.903Z,4.50
2023-03-11T03:44:23.228Z,4.57
2023-03-11T03:48:24.754Z,3.70
2023-03-11T03:52:26.113Z,3.47
2023-03-11T03:56:27.393Z,4.23
2023-03-11T04:00:28.735Z,3.17
2023-03-11T04:04:30.658Z,3.40
2023-03-11T04:08:31.989Z,3.83
2023-03-11T04:12:33.318Z,4.77
2023-03-11T04:16:34.764Z,3.90
2023-03-11T04:20:38.678Z,4.97
2023-03-11T04:24:40.026Z,3.50
2023-03-11T04:28:41.832Z,3.80
2023-03-11T04:32:43.436Z,3.40
2023-03-11T04:36:44.834Z,3.30
2023-03-11T04:40:46.217Z,3.87
2023-03-11T04:44:47.642Z,3.93
2023-03-11T04:48:49.087Z,3.97
2023-03-11T04:52:50.491Z,3.13
2023-03-11T04:56:51.852Z,3.73
2023-03-11T05:00:53.326Z,3.87
2023-03-11T05:04:54.759Z,3.97
2023-03-11T05:08:56.152Z,4.00
2023-03-11T05:12:57.427Z,3.87
2023-03-11T05:16:58.872Z,5.00
2023-03-11T05:21:00.237Z,4.43
2023-03-11T05:25:01.643Z,4.27
2023-03-11T05:29:02.958Z,4.57
2023-03-11T05:33:04.374Z,3.93
2023-03-11T05:37:05.938Z,3.63
2023-03-11T05:41:07.366Z,4.10
2023-03-11T05:45:09.921Z,4.30
2023-03-11T05:49:11.318Z,3.93
2023-03-11T05:53:12.737Z,4.27
2023-03-11T05:57:14.098Z,4.50
2023-03-11T06:01:17.567Z,4.40
2023-03-11T06:05:19.111Z,4.13
2023-03-11T06:09:20.536Z,4.70
2023-03-11T06:13:21.899Z,4.20
2023-03-11T06:17:23.314Z,4.43
2023-03-11T06:21:26.633Z,4.10
2023-03-11T06:25:28.011Z,4.90
2023-03-11T06:29:29.950Z,4.10
2023-03-11T06:33:31.251Z,3.93
2023-03-11T06:37:36.905Z,4.27
2023-03-11T06:41:38.190Z,3.40
2023-03-11T06:45:39.525Z,3.57
2023-03-11T06:49:42.576Z,3.77
2023-03-11T06:53:47.904Z,3.97
2023-03-11T06:57:49.312Z,3.77
2023-03-11T07:01:50.660Z,3.20
2023-03-11T07:05:52.128Z,3.83
2023-03-11T07:09:55.919Z,3.43
2023-03-11T07:13:57.289Z,4.37
2023-03-11T07:17:58.832Z,4.17
2023-03-11T07:22:00.346Z,3.93
2023-03-11T07:26:02.015Z,4.10
2023-03-11T07:30:03.653Z,4.23
2023-03-11T07:34:11.157Z,3.77
2023-03-11T07:38:12.577Z,4.07
2023-03-11T07:42:13.876Z,4.90
2023-03-11T07:46:18.450Z,3.67
2023-03-11T07:50:22.186Z,4.93
2023-03-11T07:54:23.620Z,3.30
2023-03-11T07:58:25.786Z,2.80
2023-03-11T08:02:27.304Z,3.13
2023-03-11T08:06:31.307Z,2.83
2023-03-11T08:10:32.730Z,2.83
2023-03-11T08:14:34.077Z,3.00
2023-03-11T08:18:35.450Z,2.50
2023-03-11T08:22:38.105Z,6.97
2023-03-11T08:26:42.814Z,6.37
2023-03-11T08:30:44.132Z,6.30
2023-03-11T08:34:45.596Z,6.00
2023-03-11T08:38:47.261Z,6.33
2023-03-11T08:42:49.245Z,6.00
2023-03-11T08:46:50.717Z,6.00
2023-03-11T08:50:54.633Z,6.43
2023-03-11T08:54:57.255Z,5.97
2023-03-11T08:58:58.711Z,5.47
2023-03-11T09:03:00.241Z,4.20
2023-03-11T09:07:01.629Z,5.33
2023-03-11T09:11:03.257Z,5.30
2023-03-11T09:15:05.789Z,1.60
2023-03-11T09:19:07.561Z,1.40
2023-03-11T09:23:11.120Z,3.23
2023-03-11T09:27:13.110Z,6.43
2023-03-11T09:31:15.781Z,3.50
2023-03-11T09:35:17.235Z,2.80
2023-03-11T09:39:18.760Z,1.00
2023-03-11T09:43:39.881Z,1.53
2023-03-11T09:48:07.832Z,1.97
2023-03-11T09:52:15.064Z,1.70
2023-03-11T09:56:22.230Z,1.63
2023-03-11T10:00:24.892Z,1.83
2023-03-11T10:04:34.113Z,1.70
2023-03-11T10:08:44.067Z,1.33
2023-03-11T10:13:28.631Z,1.20
2023-03-11T10:17:39.355Z,1.20
2023-03-11T10:21:58.327Z,1.50
2023-03-11T10:26:21.693Z,1.20
2023-03-11T10:30:33.729Z,1.10
2023-03-11T10:34:50.604Z,1.13
2023-03-11T10:38:53.882Z,1.07
2023-03-11T10:42:58.149Z,0.93
2023-03-11T10:46:59.685Z,0.70
2023-03-11T10:51:16.139Z,1.00
2023-03-11T10:55:19.908Z,0.90
2023-03-11T10:59:32.085Z,1.30
2023-03-11T11:03:34.688Z,1.30
2023-03-11T11:07:41.061Z,1.50
2023-03-11T11:12:00.344Z,1.50
2023-03-11T11:16:05.352Z,1.37
2023-03-11T11:20:17.972Z,1.23
2023-03-11T11:24:27.494Z,1.40
2023-03-11T11:28:28.999Z,1.40
2023-03-11T11:32:30.348Z,1.57
2023-03-11T11:36:35.729Z,2.03
2023-03-11T11:40:37.494Z,1.50
2023-03-11T11:44:40.161Z,1.23
2023-03-11T11:49:10.427Z,1.63
2023-03-11T11:53:24.970Z,1.70
2023-03-11T11:57:26.435Z,2.27
2023-03-11T12:01:48.886Z,1.93
2023-03-11T12:05:58.968Z,1.67
2023-03-11T12:10:24.306Z,1.70
2023-03-11T12:14:34.942Z,1.73
2023-03-11T12:18:50.172Z,1.90
2023-03-11T12:23:28.953Z,1.60
2023-03-11T12:27:36.082Z,1.83
2023-03-11T12:31:40.691Z,2.47
2023-03-11T12:35:49.747Z,1.80
2023-03-11T12:39:51.137Z,1.73
2023-03-11T12:43:52.393Z,2.50
2023-03-11T12:48:27.718Z,2.17
2023-03-11T12:52:30.032Z,2.50
2023-03-11T12:56:54.205Z,1.90
2023-03-11T13:01:23.191Z,1.93
2023-03-11T13:05:33.170Z,2.70
2023-03-11T13:09:34.902Z,2.00
2023-03-11T13:13:40.552Z,2.10
2023-03-11T13:17:42.000Z,2.00
2023-03-11T13:21:43.396Z,2.00
2023-03-11T13:26:10.773Z,1.90
2023-03-11T13:30:22.236Z,1.70
2023-03-11T13:34:40.412Z,1.47
2023-03-11T13:38:57.406Z,2.13
2023-03-11T13:43:05.483Z,2.07
2023-03-11T13:47:18.472Z,2.40
2023-03-11T13:51:32.228Z,2.67
2023-03-11T13:55:43.049Z,2.50
2023-03-11T13:59:44.353Z,2.70
2023-03-11T14:03:47.473Z,2.13
2023-03-11T14:07:48.877Z,2.53
2023-03-11T14:11:53.208Z,2.60
2023-03-11T14:16:00.389Z,3.87
2023-03-11T14:20:06.982Z,3.00
2023-03-11T14:24:17.073Z,1.90
2023-03-11T14:28:20.334Z,2.33
2023-03-11T14:32:31.244Z,2.40
2023-03-11T14:36:44.801Z,2.33
2023-03-11T14:40:55.312Z,3.00
2023-03-11T14:45:17.849Z,2.37
2023-03-11T14:49:23.079Z,2.50
2023-03-11T14:53:30.198Z,2.60
2023-03-11T14:57:39.564Z,2.63
2023-03-11T15:01:43.920Z,3.07
2023-03-11T15:06:06.925Z,3.10
2023-03-11T15:10:11.880Z,2.60
2023-03-11T15:14:25.068Z,2.33
2023-03-11T15:18:39.036Z,2.63
2023-03-11T15:22:40.964Z,4.17
2023-03-11T15:26:52.083Z,3.50
2023-03-11T15:31:33.548Z,2.97
2023-03-11T15:35:46.338Z,2.70
2023-03-11T15:39:52.066Z,2.33
2023-03-11T15:43:54.735Z,3.00
2023-03-11T15:47:56.066Z,2.50
2023-03-11T15:52:01.268Z,2.80
2023-03-11T15:56:11.282Z,3.10
2023-03-11T16:00:22.474Z,2.00
2023-03-11T16:04:24.005Z,2.80
2023-03-11T16:08:25.671Z,2.50
2023-03-11T16:12:27.015Z,3.13
2023-03-11T16:16:28.483Z,2.80
2023-03-11T16:20:36.694Z,2.27
2023-03-11T16:24:38.004Z,2.60
2023-03-11T16:28:40.243Z,2.50
2023-03-11T16:32:42.653Z,2.73
2023-03-11T16:36:44.091Z,2.50
2023-03-11T16:40:45.370Z,2.37
2023-03-11T16:44:46.703Z,2.90
2023-03-11T16:48:48.094Z,4.50
2023-03-11T16:52:49.937Z,3.57
2023-03-11T16:56:51.262Z,3.23
2023-03-11T17:00:52.626Z,3.80
2023-03-11T17:04:54.034Z,3.70
2023-03-11T17:08:55.410Z,3.53
2023-03-11T17:12:56.901Z,2.77
2023-03-11T17:16:58.829Z,3.67
2023-03-11T17:21:02.111Z,3.13
2023-03-11T17:25:03.971Z,5.37
2023-03-11T17:29:05.659Z,4.03
2023-03-11T17:33:07.027Z,3.03
2023-03-11T17:37:08.936Z,3.47
2023-03-11T17:41:17.243Z,3.40
2023-03-11T17:45:18.622Z,5.27
2023-03-11T17:49:20.032Z,6.20
2023-03-11T17:53:21.335Z,4.83
2023-03-11T17:57:25.021Z,5.20
2023-03-11T18:01:27.964Z,4.67
2023-03-11T18:05:29.321Z,3.50
2023-03-11T18:09:30.749Z,3.47
2023-03-11T18:13:33.361Z,3.80
2023-03-11T18:17:35.358Z,4.20
2023-03-11T18:21:36.825Z,3.50
2023-03-11T18:25:38.133Z,3.43
2023-03-11T18:29:39.573Z,3.57
2023-03-11T18:33:42.819Z,3.40
2023-03-11T18:37:44.133Z,4.80
2023-03-11T18:41:45.464Z,5.13
2023-03-11T18:45:46.847Z,4.57
2023-03-11T18:49:48.265Z,5.30
2023-03-11T18:53:49.580Z,4.50
2023-03-11T18:57:53.179Z,4.10
2023-03-11T19:01:54.970Z,4.20
2023-03-11T19:05:56.396Z,4.00
2023-03-11T19:09:57.876Z,3.73
2023-03-11T19:13:59.917Z,5.00
2023-03-11T19:18:06.985Z,4.40
2023-03-11T19:22:08.708Z,4.43
2023-03-11T19:26:10.124Z,4.33
2023-03-11T19:30:12.270Z,5.13
2023-03-11T19:34:13.648Z,6.50
2023-03-11T19:38:14.992Z,7.20
2023-03-11T19:42:16.345Z,8.47
2023-03-11T19:46:20.464Z,8.20
2023-03-11T19:50:22.564Z,10.70
2023-03-11T19:54:24.009Z,7.17
2023-03-11T19:58:30.231Z,6.47
2023-03-11T20:02:32.221Z,7.20
2023-03-11T20:06:34.031Z,9.80
2023-03-11T20:10:40.544Z,6.80
2023-03-11T20:14:42.855Z,8.27
2023-03-11T20:18:44.516Z,12.67
2023-03-11T20:22:45.876Z,12.40
2023-03-11T20:26:48.840Z,7.47
2023-03-11T20:30:52.061Z,7.27
2023-03-11T20:34:53.473Z,12.97
2023-03-11T20:38:56.128Z,9.33
2023-03-11T20:42:57.605Z,11.20
2023-03-11T20:46:59.240Z,14.80
2023-03-11T20:51:13.705Z,14.00
2023-03-11T20:55:15.209Z,10.93
2023-03-11T20:59:16.898Z,13.03
2023-03-11T21:03:18.467Z,15.33
2023-03-11T21:07:19.870Z,12.03
2023-03-11T21:11:22.138Z,18.13
2023-03-11T21:15:23.551Z,12.27
2023-03-11T21:19:25.008Z,10.20
2023-03-11T21:23:26.492Z,11.30
2023-03-11T21:27:28.044Z,13.43
2023-03-11T21:31:30.009Z,12.47
2023-03-11T21:35:34.335Z,13.30
2023-03-11T21:39:35.826Z,12.10
2023-03-11T21:43:38.953Z,11.77
2023-03-11T21:47:40.524Z,11.80
2023-03-11T21:51:41.868Z,14.70
2023-03-11T21:55:43.531Z,12.80
2023-03-11T21:59:45.004Z,14.33
2023-03-11T22:03:47.946Z,14.17
2023-03-11T22:07:49.564Z,14.67
2023-03-11T22:11:51.158Z,14.10
2023-03-11T22:15:52.827Z,13.83
2023-03-11T22:19:54.393Z,14.33
2023-03-11T22:23:55.785Z,13.20
2023-03-11T22:27:57.166Z,13.60
2023-03-11T22:31:58.602Z,13.33
2023-03-11T22:36:02.031Z,13.03
2023-03-11T22:40:07.493Z,13.67
2023-03-11T22:44:08.858Z,13.40
2023-03-11T22:48:10.229Z,11.03
2023-03-11T22:52:11.606Z,10.63
2023-03-11T22:56:14.985Z,12.50
2023-03-11T23:00:20.822Z,11.00
2023-03-11T23:04:22.276Z,12.07
2023-03-11T23:08:23.761Z,12.73
2023-03-11T23:12:25.233Z,11.13
2023-03-11T23:16:26.648Z,13.53
2023-03-11T23:20:28.245Z,10.27
2023-03-11T23:24:29.716Z,10.40
2023-03-11T23:28:31.150Z,11.37
2023-03-11T23:32:32.799Z,9.60
2023-03-11T23:36:34.373Z,11.00
2023-03-11T23:40:35.750Z,10.87
2023-03-11T23:44:37.129Z,10.50
2023-03-11T23:48:38.802Z,11.73
2023-03-11T23:52:40.143Z,11.40
2023-03-11T23:56:43.544Z,11.23
